sensor_id;sensor_type;location;lat;lon;timestamp;P1;durP1;ratioP1;P2;durP2;ratioP2
77287;SDS011;66345;42.694;23.346;2023-03-26T00:01:25;1.88;;;0.40;;
77287;SDS011;66345;42.694;23.346;2023-03-26T00:03:52;1.73;;;0.33;;
77287;SDS011;66345;42.694;23.346;2023-03-26T00:06:29;1.77;;;0.25;;
77287;SDS011;66345;42.694;23.346;2023-03-26T00:08:58;1.70;;;0.40;;
77287;SDS011;66345;42.694;23.346;2023-03-26T00:11:25;1.80;;;0.30;;
77287;SDS011;66345;42.694;23.346;2023-03-26T00:13:52;1.23;;;0.30;;
77287;SDS011;66345;42.694;23.346;2023-03-26T00:16:20;2.72;;;0.40;;
77287;SDS011;66345;42.694;23.346;2023-03-26T00:18:48;2.13;;;0.32;;
77287;SDS011;66345;42.694;23.346;2023-03-26T00:21:16;2.50;;;0.50;;
77287;SDS011;66345;42.694;23.346;2023-03-26T00:23:44;2.40;;;0.50;;
77287;SDS011;66345;42.694;23.346;2023-03-26T00:26:11;1.95;;;0.40;;
77287;SDS011;66345;42.694;23.346;2023-03-26T00:28:37;1.80;;;0.40;;
77287;SDS011;66345;42.694;23.346;2023-03-26T00:31:05;2.05;;;0.43;;
77287;SDS011;66345;42.694;23.346;2023-03-26T00:33:33;2.65;;;0.50;;
77287;SDS011;66345;42.694;23.346;2023-03-26T00:36:02;1.60;;;0.40;;
77287;SDS011;66345;42.694;23.346;2023-03-26T00:38:29;2.03;;;0.50;;
77287;SDS011;66345;42.694;23.346;2023-03-26T00:40:58;1.13;;;0.30;;
77287;SDS011;66345;42.694;23.346;2023-03-26T00:43:34;1.75;;;0.40;;
77287;SDS011;66345;42.694;23.346;2023-03-26T00:46:00;2.55;;;0.50;;
77287;SDS011;66345;42.694;23.346;2023-03-26T00:48:26;1.85;;;0.40;;
77287;SDS011;66345;42.694;23.346;2023-03-26T00:50:54;2.00;;;0.47;;
77287;SDS011;66345;42.694;23.346;2023-03-26T00:53:20;1.80;;;0.40;;
77287;SDS011;66345;42.694;23.346;2023-03-26T00:55:46;2.05;;;0.43;;
77287;SDS011;66345;42.694;23.346;2023-03-26T00:58:12;2.33;;;0.50;;
77287;SDS011;66345;42.694;23.346;2023-03-26T01:00:46;2.67;;;0.50;;
77287;SDS011;66345;42.694;23.346;2023-03-26T01:03:23;1.90;;;0.50;;
77287;SDS011;66345;42.694;23.346;2023-03-26T01:06:03;1.55;;;0.40;;
77287;SDS011;66345;42.694;23.346;2023-03-26T01:08:33;1.85;;;0.40;;
77287;SDS011;66345;42.694;23.346;2023-03-26T01:11:12;2.03;;;0.35;;
77287;SDS011;66345;42.694;23.346;2023-03-26T01:13:50;1.95;;;0.40;;
77287;SDS011;66345;42.694;23.346;2023-03-26T01:18:55;1.80;;;0.40;;
77287;SDS011;66345;42.694;23.346;2023-03-26T01:21:23;1.77;;;0.32;;
77287;SDS011;66345;42.694;23.346;2023-03-26T01:23:55;1.52;;;0.30;;
77287;SDS011;66345;42.694;23.346;2023-03-26T01:29:19;3.37;;;0.60;;
77287;SDS011;66345;42.694;23.346;2023-03-26T01:40:16;1.55;;;0.45;;
77287;SDS011;66345;42.694;23.346;2023-03-26T01:42:51;3.07;;;0.40;;
77287;SDS011;66345;42.694;23.346;2023-03-26T01:45:23;1.42;;;0.30;;
77287;SDS011;66345;42.694;23.346;2023-03-26T01:47:52;1.98;;;0.40;;
77287;SDS011;66345;42.694;23.346;2023-03-26T01:50:19;2.15;;;0.45;;
77287;SDS011;66345;42.694;23.346;2023-03-26T01:52:44;0.83;;;0.10;;
77287;SDS011;66345;42.694;23.346;2023-03-26T01:55:10;1.35;;;0.40;;
77287;SDS011;66345;42.694;23.346;2023-03-26T02:00:22;0.98;;;0.20;;
77287;SDS011;66345;42.694;23.346;2023-03-26T02:05:32;1.73;;;0.40;;
77287;SDS011;66345;42.694;23.346;2023-03-26T02:08:07;2.20;;;0.50;;
77287;SDS011;66345;42.694;23.346;2023-03-26T02:10:41;2.97;;;0.50;;
77287;SDS011;66345;42.694;23.346;2023-03-26T02:13:10;2.97;;;0.50;;
77287;SDS011;66345;42.694;23.346;2023-03-26T02:15:38;2.30;;;0.60;;
77287;SDS011;66345;42.694;23.346;2023-03-26T02:18:05;2.88;;;0.55;;
77287;SDS011;66345;42.694;23.346;2023-03-26T02:20:35;2.55;;;0.70;;
77287;SDS011;66345;42.694;23.346;2023-03-26T02:23:01;2.30;;;0.57;;
77287;SDS011;66345;42.694;23.346;2023-03-26T02:25:26;2.60;;;0.60;;
77287;SDS011;66345;42.694;23.346;2023-03-26T02:27:52;2.90;;;0.90;;
77287;SDS011;66345;42.694;23.346;2023-03-26T02:30:20;3.15;;;0.70;;
77287;SDS011;66345;42.694;23.346;2023-03-26T02:32:51;2.87;;;0.70;;
77287;SDS011;66345;42.694;23.346;2023-03-26T02:35:18;4.35;;;1.25;;
77287;SDS011;66345;42.694;23.346;2023-03-26T02:37:45;2.90;;;0.88;;
77287;SDS011;66345;42.694;23.346;2023-03-26T02:40:15;2.70;;;0.90;;
77287;SDS011;66345;42.694;23.346;2023-03-26T02:42:41;2.38;;;0.80;;
77287;SDS011;66345;42.694;23.346;2023-03-26T02:45:07;2.97;;;0.80;;
77287;SDS011;66345;42.694;23.346;2023-03-26T02:47:33;3.85;;;0.80;;
77287;SDS011;66345;42.694;23.346;2023-03-26T02:49:58;2.83;;;0.73;;
77287;SDS011;66345;42.694;23.346;2023-03-26T02:52:25;3.45;;;0.73;;
77287;SDS011;66345;42.694;23.346;2023-03-26T02:54:51;2.50;;;0.70;;
77287;SDS011;66345;42.694;23.346;2023-03-26T02:57:17;2.47;;;0.63;;
77287;SDS011;66345;42.694;23.346;2023-03-26T02:59:43;4.73;;;0.77;;
77287;SDS011;66345;42.694;23.346;2023-03-26T03:02:10;2.08;;;0.77;;
77287;SDS011;66345;42.694;23.346;2023-03-26T03:04:38;2.83;;;0.70;;
77287;SDS011;66345;42.694;23.346;2023-03-26T03:07:04;2.83;;;0.73;;
77287;SDS011;66345;42.694;23.346;2023-03-26T03:09:29;2.47;;;0.70;;
77287;SDS011;66345;42.694;23.346;2023-03-26T03:11:55;2.40;;;0.60;;
77287;SDS011;66345;42.694;23.346;2023-03-26T03:14:20;2.28;;;0.70;;
77287;SDS011;66345;42.694;23.346;2023-03-26T03:16:46;2.63;;;0.83;;
77287;SDS011;66345;42.694;23.346;2023-03-26T03:19:12;3.63;;;1.03;;
77287;SDS011;66345;42.694;23.346;2023-03-26T03:21:37;3.13;;;1.10;;
77287;SDS011;66345;42.694;23.346;2023-03-26T03:24:04;2.97;;;1.02;;
77287;SDS011;66345;42.694;23.346;2023-03-26T03:26:31;3.40;;;1.00;;
77287;SDS011;66345;42.694;23.346;2023-03-26T03:28:58;3.80;;;1.02;;
77287;SDS011;66345;42.694;23.346;2023-03-26T03:31:24;3.47;;;1.50;;
77287;SDS011;66345;42.694;23.346;2023-03-26T03:33:50;3.72;;;1.40;;
77287;SDS011;66345;42.694;23.346;2023-03-26T03:36:17;3.93;;;1.60;;
77287;SDS011;66345;42.694;23.346;2023-03-26T03:38:47;5.72;;;1.85;;
77287;SDS011;66345;42.694;23.346;2023-03-26T03:41:14;3.08;;;1.00;;
77287;SDS011;66345;42.694;23.346;2023-03-26T03:43:42;5.22;;;1.83;;
77287;SDS011;66345;42.694;23.346;2023-03-26T03:46:08;5.50;;;1.80;;
77287;SDS011;66345;42.694;23.346;2023-03-26T03:48:33;4.33;;;1.80;;
77287;SDS011;66345;42.694;23.346;2023-03-26T03:51:02;4.72;;;1.92;;
77287;SDS011;66345;42.694;23.346;2023-03-26T03:53:28;5.15;;;1.80;;
77287;SDS011;66345;42.694;23.346;2023-03-26T03:55:55;4.35;;;1.85;;
77287;SDS011;66345;42.694;23.346;2023-03-26T03:58:21;5.43;;;1.98;;
77287;SDS011;66345;42.694;23.346;2023-03-26T04:00:48;4.57;;;1.70;;
77287;SDS011;66345;42.694;23.346;2023-03-26T04:03:15;3.53;;;1.48;;
77287;SDS011;66345;42.694;23.346;2023-03-26T04:05:41;3.75;;;1.70;;
77287;SDS011;66345;42.694;23.346;2023-03-26T04:08:13;3.90;;;1.60;;
77287;SDS011;66345;42.694;23.346;2023-03-26T04:10:40;4.20;;;1.80;;
77287;SDS011;66345;42.694;23.346;2023-03-26T04:13:07;4.70;;;1.60;;
77287;SDS011;66345;42.694;23.346;2023-03-26T04:15:33;4.45;;;1.65;;
77287;SDS011;66345;42.694;23.346;2023-03-26T04:17:59;4.50;;;1.90;;
77287;SDS011;66345;42.694;23.346;2023-03-26T04:20:25;4.43;;;2.27;;
77287;SDS011;66345;42.694;23.346;2023-03-26T04:22:51;4.30;;;2.10;;
77287;SDS011;66345;42.694;23.346;2023-03-26T04:25:16;4.55;;;2.10;;
77287;SDS011;66345;42.694;23.346;2023-03-26T04:27:42;4.60;;;2.27;;
77287;SDS011;66345;42.694;23.346;2023-03-26T04:30:10;5.70;;;2.20;;
77287;SDS011;66345;42.694;23.346;2023-03-26T04:32:39;5.07;;;1.98;;
77287;SDS011;66345;42.694;23.346;2023-03-26T04:35:07;4.97;;;2.10;;
77287;SDS011;66345;42.694;23.346;2023-03-26T04:37:36;5.63;;;2.35;;
77287;SDS011;66345;42.694;23.346;2023-03-26T04:40:05;4.60;;;2.28;;
77287;SDS011;66345;42.694;23.346;2023-03-26T04:42:35;5.95;;;2.30;;
77287;SDS011;66345;42.694;23.346;2023-03-26T04:45:04;6.38;;;2.50;;
77287;SDS011;66345;42.694;23.346;2023-03-26T04:47:30;5.57;;;2.53;;
77287;SDS011;66345;42.694;23.346;2023-03-26T04:49:55;4.68;;;2.10;;
77287;SDS011;66345;42.694;23.346;2023-03-26T04:52:21;5.97;;;2.50;;
77287;SDS011;66345;42.694;23.346;2023-03-26T04:54:46;4.70;;;2.10;;
77287;SDS011;66345;42.694;23.346;2023-03-26T04:57:14;4.57;;;2.30;;
77287;SDS011;66345;42.694;23.346;2023-03-26T04:59:41;4.80;;;2.55;;
77287;SDS011;66345;42.694;23.346;2023-03-26T05:02:07;4.90;;;2.30;;
77287;SDS011;66345;42.694;23.346;2023-03-26T05:04:37;3.78;;;1.95;;
77287;SDS011;66345;42.694;23.346;2023-03-26T05:07:08;5.40;;;2.10;;
77287;SDS011;66345;42.694;23.346;2023-03-26T05:09:35;5.22;;;2.50;;
77287;SDS011;66345;42.694;23.346;2023-03-26T05:12:00;5.17;;;2.37;;
77287;SDS011;66345;42.694;23.346;2023-03-26T05:14:26;6.00;;;2.93;;
77287;SDS011;66345;42.694;23.346;2023-03-26T05:16:52;5.32;;;2.65;;
77287;SDS011;66345;42.694;23.346;2023-03-26T05:19:18;5.73;;;3.20;;
77287;SDS011;66345;42.694;23.346;2023-03-26T05:21:44;5.57;;;2.97;;
77287;SDS011;66345;42.694;23.346;2023-03-26T05:24:10;5.07;;;2.20;;
77287;SDS011;66345;42.694;23.346;2023-03-26T05:26:35;4.53;;;2.17;;
77287;SDS011;66345;42.694;23.346;2023-03-26T05:29:01;6.97;;;3.42;;
77287;SDS011;66345;42.694;23.346;2023-03-26T05:31:29;6.30;;;2.80;;
77287;SDS011;66345;42.694;23.346;2023-03-26T05:33:55;6.80;;;3.60;;
77287;SDS011;66345;42.694;23.346;2023-03-26T05:36:20;7.25;;;3.47;;
77287;SDS011;66345;42.694;23.346;2023-03-26T05:38:47;5.78;;;3.10;;
77287;SDS011;66345;42.694;23.346;2023-03-26T05:41:13;6.60;;;2.93;;
77287;SDS011;66345;42.694;23.346;2023-03-26T05:43:40;7.00;;;3.85;;
77287;SDS011;66345;42.694;23.346;2023-03-26T05:46:08;7.38;;;4.53;;
77287;SDS011;66345;42.694;23.346;2023-03-26T05:48:34;6.25;;;3.20;;
77287;SDS011;66345;42.694;23.346;2023-03-26T05:51:02;8.13;;;4.45;;
77287;SDS011;66345;42.694;23.346;2023-03-26T05:53:28;8.48;;;4.05;;
77287;SDS011;66345;42.694;23.346;2023-03-26T05:55:53;7.85;;;4.43;;
77287;SDS011;66345;42.694;23.346;2023-03-26T05:58:23;8.60;;;4.88;;
77287;SDS011;66345;42.694;23.346;2023-03-26T06:00:55;7.32;;;4.20;;
77287;SDS011;66345;42.694;23.346;2023-03-26T06:03:22;9.05;;;4.22;;
77287;SDS011;66345;42.694;23.346;2023-03-26T06:05:48;8.60;;;4.55;;
77287;SDS011;66345;42.694;23.346;2023-03-26T06:08:15;7.38;;;4.18;;
77287;SDS011;66345;42.694;23.346;2023-03-26T06:10:40;8.07;;;4.77;;
77287;SDS011;66345;42.694;23.346;2023-03-26T06:13:06;6.40;;;3.20;;
77287;SDS011;66345;42.694;23.346;2023-03-26T06:15:32;5.75;;;3.20;;
77287;SDS011;66345;42.694;23.346;2023-03-26T06:17:59;7.20;;;3.60;;
77287;SDS011;66345;42.694;23.346;2023-03-26T06:20:24;6.57;;;2.88;;
77287;SDS011;66345;42.694;23.346;2023-03-26T06:22:50;6.90;;;3.87;;
77287;SDS011;66345;42.694;23.346;2023-03-26T06:25:15;5.38;;;3.58;;
77287;SDS011;66345;42.694;23.346;2023-03-26T06:27:41;5.40;;;3.72;;
77287;SDS011;66345;42.694;23.346;2023-03-26T06:30:06;6.20;;;4.13;;
77287;SDS011;66345;42.694;23.346;2023-03-26T06:32:32;5.97;;;3.75;;
77287;SDS011;66345;42.694;23.346;2023-03-26T06:34:58;6.60;;;4.10;;
77287;SDS011;66345;42.694;23.346;2023-03-26T06:37:23;5.73;;;3.97;;
77287;SDS011;66345;42.694;23.346;2023-03-26T06:39:49;7.22;;;3.97;;
77287;SDS011;66345;42.694;23.346;2023-03-26T06:42:14;7.27;;;3.90;;
77287;SDS011;66345;42.694;23.346;2023-03-26T06:44:40;6.00;;;3.90;;
77287;SDS011;66345;42.694;23.346;2023-03-26T06:47:05;5.93;;;4.18;;
77287;SDS011;66345;42.694;23.346;2023-03-26T06:49:31;5.93;;;3.97;;
77287;SDS011;66345;42.694;23.346;2023-03-26T06:51:56;5.63;;;3.90;;
77287;SDS011;66345;42.694;23.346;2023-03-26T06:54:22;5.03;;;3.43;;
77287;SDS011;66345;42.694;23.346;2023-03-26T06:56:48;5.47;;;3.63;;
77287;SDS011;66345;42.694;23.346;2023-03-26T06:59:15;5.53;;;3.63;;
77287;SDS011;66345;42.694;23.346;2023-03-26T07:01:42;6.00;;;3.80;;
77287;SDS011;66345;42.694;23.346;2023-03-26T07:04:07;6.03;;;3.80;;
77287;SDS011;66345;42.694;23.346;2023-03-26T07:06:32;6.87;;;3.80;;
77287;SDS011;66345;42.694;23.346;2023-03-26T07:08:58;5.63;;;3.78;;
77287;SDS011;66345;42.694;23.346;2023-03-26T07:11:23;5.60;;;3.47;;
77287;SDS011;66345;42.694;23.346;2023-03-26T07:13:50;4.85;;;3.35;;
77287;SDS011;66345;42.694;23.346;2023-03-26T07:16:16;5.03;;;3.20;;
77287;SDS011;66345;42.694;23.346;2023-03-26T07:18:42;4.80;;;2.90;;
77287;SDS011;66345;42.694;23.346;2023-03-26T07:21:07;5.40;;;3.80;;
77287;SDS011;66345;42.694;23.346;2023-03-26T07:23:33;6.03;;;3.78;;
77287;SDS011;66345;42.694;23.346;2023-03-26T07:26:00;5.60;;;3.50;;
77287;SDS011;66345;42.694;23.346;2023-03-26T07:28:49;8.23;;;4.28;;
77287;SDS011;66345;42.694;23.346;2023-03-26T07:34:15;5.47;;;3.15;;
77287;SDS011;66345;42.694;23.346;2023-03-26T07:37:30;8.07;;;3.25;;
77287;SDS011;66345;42.694;23.346;2023-03-26T07:46:03;5.35;;;3.17;;
77287;SDS011;66345;42.694;23.346;2023-03-26T07:49:02;5.30;;;3.25;;
77287;SDS011;66345;42.694;23.346;2023-03-26T07:51:22;7.50;;;3.30;;
77287;SDS011;66345;42.694;23.346;2023-03-26T07:53:48;5.17;;;3.43;;
77287;SDS011;66345;42.694;23.346;2023-03-26T07:59:02;5.32;;;3.45;;
77287;SDS011;66345;42.694;23.346;2023-03-26T08:07:26;6.20;;;3.42;;
77287;SDS011;66345;42.694;23.346;2023-03-26T08:10:16;4.40;;;2.95;;
77287;SDS011;66345;42.694;23.346;2023-03-26T08:13:04;5.82;;;3.42;;
77287;SDS011;66345;42.694;23.346;2023-03-26T08:18:37;4.93;;;3.07;;
77287;SDS011;66345;42.694;23.346;2023-03-26T08:21:11;4.60;;;3.10;;
77287;SDS011;66345;42.694;23.346;2023-03-26T08:29:21;5.10;;;3.10;;
77287;SDS011;66345;42.694;23.346;2023-03-26T08:31:56;5.30;;;3.00;;
77287;SDS011;66345;42.694;23.346;2023-03-26T08:34:24;5.10;;;3.13;;
77287;SDS011;66345;42.694;23.346;2023-03-26T08:36:49;5.80;;;3.30;;
77287;SDS011;66345;42.694;23.346;2023-03-26T08:39:15;4.88;;;2.97;;
77287;SDS011;66345;42.694;23.346;2023-03-26T08:47:38;5.93;;;3.92;;
77287;SDS011;66345;42.694;23.346;2023-03-26T09:06:37;3.50;;;1.80;;
77287;SDS011;66345;42.694;23.346;2023-03-26T09:09:32;5.78;;;3.47;;
77287;SDS011;66345;42.694;23.346;2023-03-26T09:21:05;3.72;;;1.90;;
77287;SDS011;66345;42.694;23.346;2023-03-26T09:23:43;3.42;;;1.70;;
77287;SDS011;66345;42.694;23.346;2023-03-26T09:26:37;3.63;;;1.83;;
77287;SDS011;66345;42.694;23.346;2023-03-26T09:31:54;4.18;;;1.75;;
77287;SDS011;66345;42.694;23.346;2023-03-26T09:40:17;5.28;;;1.60;;
77287;SDS011;66345;42.694;23.346;2023-03-26T09:42:52;3.55;;;1.63;;
77287;SDS011;66345;42.694;23.346;2023-03-26T09:48:19;3.45;;;1.67;;
77287;SDS011;66345;42.694;23.346;2023-03-26T09:59:08;3.20;;;1.40;;
77287;SDS011;66345;42.694;23.346;2023-03-26T10:12:27;3.85;;;1.52;;
77287;SDS011;66345;42.694;23.346;2023-03-26T10:18:30;3.10;;;1.20;;
77287;SDS011;66345;42.694;23.346;2023-03-26T10:20:55;3.63;;;1.20;;
77287;SDS011;66345;42.694;23.346;2023-03-26T10:23:25;4.47;;;1.55;;
77287;SDS011;66345;42.694;23.346;2023-03-26T10:45:56;3.00;;;1.20;;
77287;SDS011;66345;42.694;23.346;2023-03-26T10:48:50;3.63;;;1.30;;
77287;SDS011;66345;42.694;23.346;2023-03-26T10:53:50;3.35;;;1.35;;
77287;SDS011;66345;42.694;23.346;2023-03-26T10:56:39;3.13;;;1.00;;
77287;SDS011;66345;42.694;23.346;2023-03-26T10:59:11;3.80;;;1.20;;
77287;SDS011;66345;42.694;23.346;2023-03-26T11:06:59;3.20;;;1.30;;
77287;SDS011;66345;42.694;23.346;2023-03-26T11:12:37;3.08;;;0.80;;
77287;SDS011;66345;42.694;23.346;2023-03-26T11:28:59;2.97;;;0.80;;
77287;SDS011;66345;42.694;23.346;2023-03-26T11:34:28;2.38;;;0.70;;
77287;SDS011;66345;42.694;23.346;2023-03-26T11:36:59;3.65;;;0.73;;
77287;SDS011;66345;42.694;23.346;2023-03-26T11:39:34;3.17;;;0.82;;
77287;SDS011;66345;42.694;23.346;2023-03-26T11:42:07;3.23;;;0.80;;
77287;SDS011;66345;42.694;23.346;2023-03-26T11:44:38;3.28;;;0.90;;
77287;SDS011;66345;42.694;23.346;2023-03-26T11:47:09;2.60;;;0.90;;
77287;SDS011;66345;42.694;23.346;2023-03-26T11:49:39;2.70;;;0.80;;
77287;SDS011;66345;42.694;23.346;2023-03-26T11:52:05;2.97;;;0.50;;
77287;SDS011;66345;42.694;23.346;2023-03-26T11:54:34;1.80;;;0.47;;
77287;SDS011;66345;42.694;23.346;2023-03-26T11:57:02;3.63;;;0.60;;
77287;SDS011;66345;42.694;23.346;2023-03-26T11:59:36;2.80;;;0.70;;
77287;SDS011;66345;42.694;23.346;2023-03-26T12:04:41;2.55;;;0.70;;
77287;SDS011;66345;42.694;23.346;2023-03-26T12:07:17;2.53;;;0.60;;
77287;SDS011;66345;42.694;23.346;2023-03-26T12:09:57;4.95;;;2.13;;
77287;SDS011;66345;42.694;23.346;2023-03-26T12:12:45;3.05;;;1.15;;
77287;SDS011;66345;42.694;23.346;2023-03-26T12:15:12;3.25;;;0.80;;
77287;SDS011;66345;42.694;23.346;2023-03-26T12:17:39;2.25;;;0.60;;
77287;SDS011;66345;42.694;23.346;2023-03-26T12:20:29;2.27;;;0.53;;
77287;SDS011;66345;42.694;23.346;2023-03-26T12:22:57;1.95;;;0.43;;
77287;SDS011;66345;42.694;23.346;2023-03-26T12:25:24;2.55;;;0.50;;
77287;SDS011;66345;42.694;23.346;2023-03-26T12:30:38;2.60;;;0.50;;
77287;SDS011;66345;42.694;23.346;2023-03-26T12:33:26;1.97;;;0.60;;
77287;SDS011;66345;42.694;23.346;2023-03-26T12:35:58;2.50;;;0.60;;
77287;SDS011;66345;42.694;23.346;2023-03-26T12:38:40;3.30;;;0.73;;
77287;SDS011;66345;42.694;23.346;2023-03-26T12:41:13;2.30;;;0.60;;
77287;SDS011;66345;42.694;23.346;2023-03-26T12:43:44;2.50;;;0.60;;
77287;SDS011;66345;42.694;23.346;2023-03-26T12:46:21;3.17;;;0.70;;
77287;SDS011;66345;42.694;23.346;2023-03-26T12:49:00;2.72;;;0.82;;
77287;SDS011;66345;42.694;23.346;2023-03-26T12:51:42;4.18;;;0.52;;
77287;SDS011;66345;42.694;23.346;2023-03-26T13:03:03;2.20;;;0.50;;
77287;SDS011;66345;42.694;23.346;2023-03-26T13:16:16;3.00;;;0.60;;
77287;SDS011;66345;42.694;23.346;2023-03-26T13:18:58;2.13;;;0.60;;
77287;SDS011;66345;42.694;23.346;2023-03-26T13:45:38;3.03;;;1.00;;
77287;SDS011;66345;42.694;23.346;2023-03-26T13:48:09;2.17;;;0.60;;
77287;SDS011;66345;42.694;23.346;2023-03-26T13:50:41;1.83;;;0.50;;
77287;SDS011;66345;42.694;23.346;2023-03-26T13:53:13;4.25;;;0.60;;
77287;SDS011;66345;42.694;23.346;2023-03-26T13:55:46;1.83;;;0.40;;
77287;SDS011;66345;42.694;23.346;2023-03-26T13:58:36;3.22;;;0.57;;
77287;SDS011;66345;42.694;23.346;2023-03-26T14:09:20;2.90;;;0.40;;
77287;SDS011;66345;42.694;23.346;2023-03-26T14:14:33;1.70;;;0.40;;
77287;SDS011;66345;42.694;23.346;2023-03-26T14:17:05;2.30;;;0.40;;
77287;SDS011;66345;42.694;23.346;2023-03-26T14:23:03;2.30;;;0.50;;
77287;SDS011;66345;42.694;23.346;2023-03-26T14:39:17;2.45;;;0.50;;
77287;SDS011;66345;42.694;23.346;2023-03-26T14:47:33;2.83;;;0.50;;
77287;SDS011;66345;42.694;23.346;2023-03-26T14:52:59;2.33;;;0.50;;
77287;SDS011;66345;42.694;23.346;2023-03-26T14:55:47;2.95;;;0.55;;
77287;SDS011;66345;42.694;23.346;2023-03-26T15:10:17;2.92;;;0.40;;
77287;SDS011;66345;42.694;23.346;2023-03-26T15:12:53;1.77;;;0.47;;
77287;SDS011;66345;42.694;23.346;2023-03-26T15:15:37;2.58;;;0.68;;
77287;SDS011;66345;42.694;23.346;2023-03-26T15:18:30;3.37;;;0.80;;
77287;SDS011;66345;42.694;23.346;2023-03-26T15:30:56;1.80;;;0.30;;
77287;SDS011;66345;42.694;23.346;2023-03-26T15:33:45;2.23;;;0.33;;
77287;SDS011;66345;42.694;23.346;2023-03-26T15:45:28;2.90;;;0.80;;
77287;SDS011;66345;42.694;23.346;2023-03-26T15:47:54;3.10;;;0.90;;
77287;SDS011;66345;42.694;23.346;2023-03-26T15:59:06;2.83;;;0.70;;
77287;SDS011;66345;42.694;23.346;2023-03-26T16:16:10;3.07;;;0.83;;
77287;SDS011;66345;42.694;23.346;2023-03-26T16:18:44;3.08;;;1.10;;
77287;SDS011;66345;42.694;23.346;2023-03-26T16:28:35;2.65;;;0.80;;
77287;SDS011;66345;42.694;23.346;2023-03-26T16:34:24;3.00;;;0.80;;
77287;SDS011;66345;42.694;23.346;2023-03-26T16:36:45;3.25;;;0.95;;
77287;SDS011;66345;42.694;23.346;2023-03-26T16:39:20;3.38;;;0.90;;
77287;SDS011;66345;42.694;23.346;2023-03-26T16:41:54;4.25;;;0.90;;
77287;SDS011;66345;42.694;23.346;2023-03-26T16:55:42;4.53;;;1.20;;
77287;SDS011;66345;42.694;23.346;2023-03-26T17:04:17;5.05;;;1.30;;
77287;SDS011;66345;42.694;23.346;2023-03-26T17:09:57;4.43;;;1.30;;
77287;SDS011;66345;42.694;23.346;2023-03-26T17:12:39;4.20;;;1.30;;
77287;SDS011;66345;42.694;23.346;2023-03-26T17:15:16;4.77;;;1.63;;
77287;SDS011;66345;42.694;23.346;2023-03-26T17:26:39;7.25;;;1.83;;
77287;SDS011;66345;42.694;23.346;2023-03-26T17:32:05;4.40;;;1.60;;
77287;SDS011;66345;42.694;23.346;2023-03-26T17:42:31;5.23;;;1.80;;
77287;SDS011;66345;42.694;23.346;2023-03-26T17:50:05;10.60;;;3.67;;
77287;SDS011;66345;42.694;23.346;2023-03-26T17:55:23;10.37;;;3.90;;
77287;SDS011;66345;42.694;23.346;2023-03-26T17:57:58;10.98;;;3.45;;
77287;SDS011;66345;42.694;23.346;2023-03-26T18:00:30;8.90;;;3.22;;
77287;SDS011;66345;42.694;23.346;2023-03-26T18:02:59;9.02;;;3.20;;
77287;SDS011;66345;42.694;23.346;2023-03-26T18:05:28;8.43;;;2.80;;
77287;SDS011;66345;42.694;23.346;2023-03-26T18:13:00;9.48;;;3.00;;
77287;SDS011;66345;42.694;23.346;2023-03-26T18:21:02;10.23;;;3.20;;
77287;SDS011;66345;42.694;23.346;2023-03-26T18:26:09;10.63;;;4.43;;
77287;SDS011;66345;42.694;23.346;2023-03-26T18:28:44;13.75;;;3.90;;
77287;SDS011;66345;42.694;23.346;2023-03-26T18:31:21;11.45;;;5.63;;
77287;SDS011;66345;42.694;23.346;2023-03-26T18:33:48;17.53;;;5.03;;
77287;SDS011;66345;42.694;23.346;2023-03-26T18:36:19;11.93;;;4.57;;
77287;SDS011;66345;42.694;23.346;2023-03-26T18:38:49;8.68;;;3.10;;
77287;SDS011;66345;42.694;23.346;2023-03-26T18:41:19;11.57;;;3.40;;
77287;SDS011;66345;42.694;23.346;2023-03-26T18:43:51;11.18;;;3.17;;
77287;SDS011;66345;42.694;23.346;2023-03-26T18:46:18;10.33;;;2.87;;
77287;SDS011;66345;42.694;23.346;2023-03-26T18:48:48;9.85;;;3.17;;
77287;SDS011;66345;42.694;23.346;2023-03-26T18:51:14;10.02;;;3.40;;
77287;SDS011;66345;42.694;23.346;2023-03-26T18:53:51;9.35;;;3.67;;
77287;SDS011;66345;42.694;23.346;2023-03-26T18:56:26;9.73;;;3.42;;
77287;SDS011;66345;42.694;23.346;2023-03-26T18:59:03;9.63;;;3.50;;
77287;SDS011;66345;42.694;23.346;2023-03-26T19:01:31;8.02;;;3.47;;
77287;SDS011;66345;42.694;23.346;2023-03-26T19:04:02;12.32;;;5.35;;
77287;SDS011;66345;42.694;23.346;2023-03-26T19:06:30;8.15;;;3.47;;
77287;SDS011;66345;42.694;23.346;2023-03-26T19:09:00;18.27;;;4.60;;
77287;SDS011;66345;42.694;23.346;2023-03-26T19:11:30;11.68;;;4.68;;
77287;SDS011;66345;42.694;23.346;2023-03-26T19:14:00;10.05;;;4.32;;
77287;SDS011;66345;42.694;23.346;2023-03-26T19:16:38;11.68;;;4.05;;
77287;SDS011;66345;42.694;23.346;2023-03-26T19:19:07;9.57;;;3.63;;
77287;SDS011;66345;42.694;23.346;2023-03-26T19:21:37;10.40;;;3.75;;
77287;SDS011;66345;42.694;23.346;2023-03-26T19:24:05;8.73;;;3.45;;
77287;SDS011;66345;42.694;23.346;2023-03-26T19:26:31;7.75;;;3.45;;
77287;SDS011;66345;42.694;23.346;2023-03-26T19:28:58;6.95;;;3.03;;
77287;SDS011;66345;42.694;23.346;2023-03-26T19:33:58;12.05;;;4.05;;
77287;SDS011;66345;42.694;23.346;2023-03-26T19:36:27;13.13;;;3.95;;
77287;SDS011;66345;42.694;23.346;2023-03-26T19:44:02;9.13;;;3.85;;
77287;SDS011;66345;42.694;23.346;2023-03-26T19:46:43;16.02;;;3.58;;
77287;SDS011;66345;42.694;23.346;2023-03-26T19:49:30;7.32;;;3.00;;
77287;SDS011;66345;42.694;23.346;2023-03-26T19:54:51;8.80;;;3.47;;
77287;SDS011;66345;42.694;23.346;2023-03-26T19:57:18;8.88;;;3.38;;
77287;SDS011;66345;42.694;23.346;2023-03-26T19:59:45;6.93;;;3.35;;
77287;SDS011;66345;42.694;23.346;2023-03-26T20:02:11;7.97;;;3.28;;
77287;SDS011;66345;42.694;23.346;2023-03-26T20:04:39;11.27;;;4.90;;
77287;SDS011;66345;42.694;23.346;2023-03-26T20:07:08;14.98;;;5.45;;
77287;SDS011;66345;42.694;23.346;2023-03-26T20:09:40;15.20;;;6.03;;
77287;SDS011;66345;42.694;23.346;2023-03-26T20:12:07;12.68;;;5.95;;
77287;SDS011;66345;42.694;23.346;2023-03-26T20:14:33;21.67;;;9.45;;
77287;SDS011;66345;42.694;23.346;2023-03-26T20:16:59;26.67;;;11.20;;
77287;SDS011;66345;42.694;23.346;2023-03-26T20:19:25;23.80;;;10.95;;
77287;SDS011;66345;42.694;23.346;2023-03-26T20:21:51;22.05;;;10.02;;
77287;SDS011;66345;42.694;23.346;2023-03-26T20:24:17;23.73;;;9.80;;
77287;SDS011;66345;42.694;23.346;2023-03-26T20:26:46;21.17;;;9.90;;
77287;SDS011;66345;42.694;23.346;2023-03-26T20:29:12;23.63;;;9.48;;
77287;SDS011;66345;42.694;23.346;2023-03-26T20:31:39;20.42;;;9.10;;
77287;SDS011;66345;42.694;23.346;2023-03-26T20:34:15;20.35;;;8.48;;
77287;SDS011;66345;42.694;23.346;2023-03-26T20:36:46;20.63;;;8.55;;
77287;SDS011;66345;42.694;23.346;2023-03-26T20:39:11;18.08;;;7.60;;
77287;SDS011;66345;42.694;23.346;2023-03-26T20:41:44;17.70;;;7.57;;
77287;SDS011;66345;42.694;23.346;2023-03-26T20:44:12;19.03;;;7.90;;
77287;SDS011;66345;42.694;23.346;2023-03-26T20:46:40;17.63;;;7.25;;
77287;SDS011;66345;42.694;23.346;2023-03-26T20:49:07;17.98;;;6.40;;
77287;SDS011;66345;42.694;23.346;2023-03-26T20:51:34;20.50;;;6.10;;
77287;SDS011;66345;42.694;23.346;2023-03-26T20:54:02;14.77;;;6.22;;
77287;SDS011;66345;42.694;23.346;2023-03-26T20:56:30;15.17;;;6.37;;
77287;SDS011;66345;42.694;23.346;2023-03-26T20:58:57;15.93;;;6.63;;
77287;SDS011;66345;42.694;23.346;2023-03-26T21:01:22;17.52;;;6.57;;
77287;SDS011;66345;42.694;23.346;2023-03-26T21:03:49;13.82;;;6.38;;
77287;SDS011;66345;42.694;23.346;2023-03-26T21:06:17;14.80;;;6.00;;
77287;SDS011;66345;42.694;23.346;2023-03-26T21:08:43;15.98;;;6.20;;
77287;SDS011;66345;42.694;23.346;2023-03-26T21:11:13;14.48;;;6.80;;